sensor_id;sensor_type;location;lat;lon;timestamp;P1;durP1;ratioP1;P2;durP2;ratioP2
72235;SDS011;60146;52.498;13.462;2023-07-30T00:02:16;6.60;;;4.47;;
72235;SDS011;60146;52.498;13.462;2023-07-30T00:04:42;8.32;;;5.30;;
72235;SDS011;60146;52.498;13.462;2023-07-30T00:07:07;8.23;;;4.82;;
72235;SDS011;60146;52.498;13.462;2023-07-30T00:09:32;6.25;;;4.38;;
72235;SDS011;60146;52.498;13.462;2023-07-30T00:11:58;6.95;;;4.55;;
72235;SDS011;60146;52.498;13.462;2023-07-30T00:14:23;8.05;;;4.47;;
72235;SDS011;60146;52.498;13.462;2023-07-30T00:16:48;8.20;;;5.28;;
72235;SDS011;60146;52.498;13.462;2023-07-30T00:19:14;9.13;;;4.95;;
72235;SDS011;60146;52.498;13.462;2023-07-30T00:21:39;8.25;;;4.80;;
72235;SDS011;60146;52.498;13.462;2023-07-30T00:24:04;6.93;;;4.20;;
72235;SDS011;60146;52.498;13.462;2023-07-30T00:26:30;8.00;;;4.28;;
72235;SDS011;60146;52.498;13.462;2023-07-30T00:28:55;9.38;;;4.40;;
72235;SDS011;60146;52.498;13.462;2023-07-30T00:31:20;6.43;;;4.32;;
72235;SDS011;60146;52.498;13.462;2023-07-30T00:33:46;7.35;;;4.28;;
72235;SDS011;60146;52.498;13.462;2023-07-30T00:36:11;8.05;;;5.47;;
72235;SDS011;60146;52.498;13.462;2023-07-30T00:38:37;7.43;;;4.30;;
72235;SDS011;60146;52.498;13.462;2023-07-30T00:41:02;6.20;;;4.10;;
72235;SDS011;60146;52.498;13.462;2023-07-30T00:43:27;9.18;;;3.90;;
72235;SDS011;60146;52.498;13.462;2023-07-30T00:45:52;6.13;;;3.75;;
72235;SDS011;60146;52.498;13.462;2023-07-30T00:48:18;21.90;;;10.67;;
72235;SDS011;60146;52.498;13.462;2023-07-30T00:50:43;6.88;;;4.30;;
72235;SDS011;60146;52.498;13.462;2023-07-30T00:53:09;6.78;;;3.92;;
72235;SDS011;60146;52.498;13.462;2023-07-30T00:55:38;6.50;;;3.95;;
72235;SDS011;60146;52.498;13.462;2023-07-30T00:58:04;7.93;;;4.03;;
72235;SDS011;60146;52.498;13.462;2023-07-30T01:00:30;7.30;;;4.22;;
72235;SDS011;60146;52.498;13.462;2023-07-30T01:02:56;5.70;;;4.05;;
72235;SDS011;60146;52.498;13.462;2023-07-30T01:05:22;5.50;;;3.55;;
72235;SDS011;60146;52.498;13.462;2023-07-30T01:07:47;7.30;;;4.55;;
72235;SDS011;60146;52.498;13.462;2023-07-30T01:10:12;7.80;;;4.70;;
72235;SDS011;60146;52.498;13.462;2023-07-30T01:12:38;7.57;;;4.35;;
72235;SDS011;60146;52.498;13.462;2023-07-30T01:15:05;8.93;;;4.20;;
72235;SDS011;60146;52.498;13.462;2023-07-30T01:17:32;6.82;;;4.20;;
72235;SDS011;60146;52.498;13.462;2023-07-30T01:19:57;7.28;;;4.32;;
72235;SDS011;60146;52.498;13.462;2023-07-30T01:22:23;7.57;;;4.00;;
72235;SDS011;60146;52.498;13.462;2023-07-30T01:24:49;6.15;;;3.80;;
72235;SDS011;60146;52.498;13.462;2023-07-30T01:27:16;6.33;;;4.00;;
72235;SDS011;60146;52.498;13.462;2023-07-30T01:29:52;8.97;;;4.67;;
72235;SDS011;60146;52.498;13.462;2023-07-30T01:32:27;9.50;;;4.30;;
72235;SDS011;60146;52.498;13.462;2023-07-30T01:34:57;6.07;;;3.80;;
72235;SDS011;60146;52.498;13.462;2023-07-30T01:37:23;5.93;;;3.50;;
72235;SDS011;60146;52.498;13.462;2023-07-30T01:39:49;5.60;;;3.80;;
72235;SDS011;60146;52.498;13.462;2023-07-30T01:42:15;7.07;;;3.30;;
72235;SDS011;60146;52.498;13.462;2023-07-30T01:44:40;4.88;;;2.80;;
72235;SDS011;60146;52.498;13.462;2023-07-30T01:47:06;5.72;;;3.08;;
72235;SDS011;60146;52.498;13.462;2023-07-30T01:49:32;5.22;;;3.35;;
72235;SDS011;60146;52.498;13.462;2023-07-30T01:51:57;5.18;;;3.55;;
72235;SDS011;60146;52.498;13.462;2023-07-30T01:54:23;7.37;;;3.70;;
72235;SDS011;60146;52.498;13.462;2023-07-30T01:56:48;4.80;;;3.33;;
72235;SDS011;60146;52.498;13.462;2023-07-30T01:59:13;4.80;;;3.27;;
72235;SDS011;60146;52.498;13.462;2023-07-30T02:01:39;5.10;;;3.27;;
72235;SDS011;60146;52.498;13.462;2023-07-30T02:04:05;5.07;;;3.30;;
72235;SDS011;60146;52.498;13.462;2023-07-30T02:06:30;5.93;;;3.30;;
72235;SDS011;60146;52.498;13.462;2023-07-30T02:08:56;5.70;;;3.40;;
72235;SDS011;60146;52.498;13.462;2023-07-30T02:11:21;4.80;;;3.37;;
72235;SDS011;60146;52.498;13.462;2023-07-30T02:13:46;6.05;;;3.47;;
72235;SDS011;60146;52.498;13.462;2023-07-30T02:16:11;5.63;;;3.40;;
72235;SDS011;60146;52.498;13.462;2023-07-30T02:18:37;5.60;;;3.07;;
72235;SDS011;60146;52.498;13.462;2023-07-30T02:21:02;4.73;;;3.10;;
72235;SDS011;60146;52.498;13.462;2023-07-30T02:23:28;6.47;;;3.53;;
72235;SDS011;60146;52.498;13.462;2023-07-30T02:25:53;5.97;;;3.30;;
72235;SDS011;60146;52.498;13.462;2023-07-30T02:28:18;9.50;;;4.15;;
72235;SDS011;60146;52.498;13.462;2023-07-30T02:30:44;6.63;;;3.83;;
72235;SDS011;60146;52.498;13.462;2023-07-30T02:33:09;6.07;;;4.27;;
72235;SDS011;60146;52.498;13.462;2023-07-30T02:35:34;7.73;;;3.80;;
72235;SDS011;60146;52.498;13.462;2023-07-30T02:38:00;5.87;;;3.77;;
72235;SDS011;60146;52.498;13.462;2023-07-30T02:40:25;9.43;;;4.20;;
72235;SDS011;60146;52.498;13.462;2023-07-30T02:42:50;7.97;;;3.88;;
72235;SDS011;60146;52.498;13.462;2023-07-30T02:45:16;7.47;;;4.17;;
72235;SDS011;60146;52.498;13.462;2023-07-30T02:47:42;7.50;;;4.53;;
72235;SDS011;60146;52.498;13.462;2023-07-30T02:50:08;5.50;;;3.97;;
72235;SDS011;60146;52.498;13.462;2023-07-30T02:52:34;6.53;;;4.33;;
72235;SDS011;60146;52.498;13.462;2023-07-30T02:54:59;7.13;;;4.10;;
72235;SDS011;60146;52.498;13.462;2023-07-30T02:57:24;6.93;;;4.70;;
72235;SDS011;60146;52.498;13.462;2023-07-30T02:59:49;7.80;;;4.03;;
72235;SDS011;60146;52.498;13.462;2023-07-30T03:02:15;7.40;;;4.00;;
72235;SDS011;60146;52.498;13.462;2023-07-30T03:04:40;6.83;;;4.20;;
72235;SDS011;60146;52.498;13.462;2023-07-30T03:07:06;6.53;;;4.20;;
72235;SDS011;60146;52.498;13.462;2023-07-30T03:09:31;6.57;;;4.23;;
72235;SDS011;60146;52.498;13.462;2023-07-30T03:11:56;8.43;;;4.87;;
72235;SDS011;60146;52.498;13.462;2023-07-30T03:14:22;9.13;;;4.70;;
72235;SDS011;60146;52.498;13.462;2023-07-30T03:16:47;10.20;;;4.83;;
72235;SDS011;60146;52.498;13.462;2023-07-30T03:19:13;8.17;;;4.47;;
72235;SDS011;60146;52.498;13.462;2023-07-30T03:21:39;8.33;;;4.70;;
72235;SDS011;60146;52.498;13.462;2023-07-30T03:24:04;5.77;;;4.07;;
72235;SDS011;60146;52.498;13.462;2023-07-30T03:26:30;6.93;;;4.63;;
72235;SDS011;60146;52.498;13.462;2023-07-30T03:28:55;10.27;;;4.70;;
72235;SDS011;60146;52.498;13.462;2023-07-30T03:31:21;7.57;;;4.47;;
72235;SDS011;60146;52.498;13.462;2023-07-30T03:33:46;7.70;;;4.30;;
72235;SDS011;60146;52.498;13.462;2023-07-30T03:36:12;7.33;;;4.63;;
72235;SDS011;60146;52.498;13.462;2023-07-30T03:38:41;6.73;;;4.30;;
72235;SDS011;60146;52.498;13.462;2023-07-30T03:41:07;7.90;;;4.57;;
72235;SDS011;60146;52.498;13.462;2023-07-30T03:43:33;8.00;;;4.70;;
72235;SDS011;60146;52.498;13.462;2023-07-30T03:45:59;6.97;;;4.60;;
72235;SDS011;60146;52.498;13.462;2023-07-30T03:48:24;9.43;;;4.77;;
72235;SDS011;60146;52.498;13.462;2023-07-30T03:50:49;7.03;;;4.30;;
72235;SDS011;60146;52.498;13.462;2023-07-30T03:53:15;6.20;;;4.23;;
72235;SDS011;60146;52.498;13.462;2023-07-30T03:55:40;7.17;;;4.77;;
72235;SDS011;60146;52.498;13.462;2023-07-30T03:58:06;6.57;;;4.37;;
72235;SDS011;60146;52.498;13.462;2023-07-30T04:00:31;8.50;;;4.50;;
72235;SDS011;60146;52.498;13.462;2023-07-30T04:02:56;7.37;;;4.40;;
72235;SDS011;60146;52.498;13.462;2023-07-30T04:05:22;8.40;;;4.73;;
72235;SDS011;60146;52.498;13.462;2023-07-30T04:07:47;10.70;;;5.33;;
72235;SDS011;60146;52.498;13.462;2023-07-30T04:10:12;9.00;;;4.70;;
72235;SDS011;60146;52.498;13.462;2023-07-30T04:12:37;7.57;;;4.57;;
72235;SDS011;60146;52.498;13.462;2023-07-30T04:15:03;11.23;;;4.80;;
72235;SDS011;60146;52.498;13.462;2023-07-30T04:17:29;7.97;;;4.67;;
72235;SDS011;60146;52.498;13.462;2023-07-30T04:19:54;8.80;;;4.70;;
72235;SDS011;60146;52.498;13.462;2023-07-30T04:22:19;6.60;;;4.70;;
72235;SDS011;60146;52.498;13.462;2023-07-30T04:24:45;7.07;;;4.63;;
72235;SDS011;60146;52.498;13.462;2023-07-30T04:27:10;7.57;;;4.63;;
72235;SDS011;60146;52.498;13.462;2023-07-30T04:29:35;7.33;;;4.93;;
72235;SDS011;60146;52.498;13.462;2023-07-30T04:32:01;7.37;;;4.83;;
72235;SDS011;60146;52.498;13.462;2023-07-30T04:34:26;8.87;;;4.77;;
72235;SDS011;60146;52.498;13.462;2023-07-30T04:36:51;6.10;;;4.37;;
72235;SDS011;60146;52.498;13.462;2023-07-30T04:39:17;6.83;;;5.00;;
72235;SDS011;60146;52.498;13.462;2023-07-30T04:41:42;5.67;;;4.40;;
72235;SDS011;60146;52.498;13.462;2023-07-30T04:44:07;7.17;;;5.07;;
72235;SDS011;60146;52.498;13.462;2023-07-30T04:46:33;5.50;;;4.37;;
72235;SDS011;60146;52.498;13.462;2023-07-30T04:48:58;6.80;;;4.45;;
72235;SDS011;60146;52.498;13.462;2023-07-30T04:51:26;6.45;;;4.63;;
72235;SDS011;60146;52.498;13.462;2023-07-30T04:53:51;9.33;;;4.77;;
72235;SDS011;60146;52.498;13.462;2023-07-30T04:56:17;6.32;;;4.65;;
72235;SDS011;60146;52.498;13.462;2023-07-30T04:58:42;6.15;;;4.55;;
72235;SDS011;60146;52.498;13.462;2023-07-30T05:01:07;5.90;;;4.00;;
72235;SDS011;60146;52.498;13.462;2023-07-30T05:03:33;6.40;;;4.15;;
72235;SDS011;60146;52.498;13.462;2023-07-30T05:05:58;8.48;;;3.88;;
72235;SDS011;60146;52.498;13.462;2023-07-30T05:08:23;5.10;;;3.97;;
72235;SDS011;60146;52.498;13.462;2023-07-30T05:10:49;7.25;;;4.45;;
72235;SDS011;60146;52.498;13.462;2023-07-30T05:13:14;5.15;;;4.10;;
72235;SDS011;60146;52.498;13.462;2023-07-30T05:15:39;5.72;;;3.85;;
72235;SDS011;60146;52.498;13.462;2023-07-30T05:18:05;5.53;;;4.07;;
72235;SDS011;60146;52.498;13.462;2023-07-30T05:20:30;5.45;;;3.92;;
72235;SDS011;60146;52.498;13.462;2023-07-30T05:22:55;4.72;;;3.72;;
72235;SDS011;60146;52.498;13.462;2023-07-30T05:25:21;6.22;;;3.72;;
72235;SDS011;60146;52.498;13.462;2023-07-30T05:27:47;6.05;;;3.40;;
72235;SDS011;60146;52.498;13.462;2023-07-30T05:30:13;5.95;;;3.80;;
72235;SDS011;60146;52.498;13.462;2023-07-30T05:32:38;7.72;;;3.25;;
72235;SDS011;60146;52.498;13.462;2023-07-30T05:35:03;5.10;;;3.55;;
72235;SDS011;60146;52.498;13.462;2023-07-30T05:37:30;3.83;;;3.20;;
72235;SDS011;60146;52.498;13.462;2023-07-30T05:39:55;3.88;;;3.45;;
72235;SDS011;60146;52.498;13.462;2023-07-30T05:42:20;4.07;;;3.00;;
72235;SDS011;60146;52.498;13.462;2023-07-30T05:44:45;4.18;;;3.20;;
72235;SDS011;60146;52.498;13.462;2023-07-30T05:47:11;3.70;;;3.08;;
72235;SDS011;60146;52.498;13.462;2023-07-30T05:49:36;4.82;;;2.60;;
72235;SDS011;60146;52.498;13.462;2023-07-30T05:52:01;2.97;;;2.60;;
72235;SDS011;60146;52.498;13.462;2023-07-30T05:54:27;3.63;;;2.90;;
72235;SDS011;60146;52.498;13.462;2023-07-30T05:56:52;5.05;;;2.90;;
72235;SDS011;60146;52.498;13.462;2023-07-30T05:59:18;6.30;;;2.72;;
72235;SDS011;60146;52.498;13.462;2023-07-30T06:01:43;4.45;;;2.67;;
72235;SDS011;60146;52.498;13.462;2023-07-30T06:04:09;3.30;;;2.60;;
72235;SDS011;60146;52.498;13.462;2023-07-30T06:06:34;4.38;;;2.58;;
72235;SDS011;60146;52.498;13.462;2023-07-30T06:08:59;2.83;;;2.30;;
72235;SDS011;60146;52.498;13.462;2023-07-30T06:11:25;3.20;;;2.30;;
72235;SDS011;60146;52.498;13.462;2023-07-30T06:13:50;3.03;;;2.60;;
72235;SDS011;60146;52.498;13.462;2023-07-30T06:16:16;2.83;;;2.25;;
72235;SDS011;60146;52.498;13.462;2023-07-30T06:18:43;3.58;;;2.28;;
72235;SDS011;60146;52.498;13.462;2023-07-30T06:21:08;2.35;;;2.00;;
72235;SDS011;60146;52.498;13.462;2023-07-30T06:23:33;3.58;;;2.33;;
72235;SDS011;60146;52.498;13.462;2023-07-30T06:25:59;3.55;;;2.30;;
72235;SDS011;60146;52.498;13.462;2023-07-30T06:28:24;3.72;;;2.47;;
72235;SDS011;60146;52.498;13.462;2023-07-30T06:30:49;2.88;;;2.00;;
72235;SDS011;60146;52.498;13.462;2023-07-30T06:33:15;2.13;;;1.92;;
72235;SDS011;60146;52.498;13.462;2023-07-30T06:35:40;2.78;;;2.05;;
72235;SDS011;60146;52.498;13.462;2023-07-30T06:38:07;3.60;;;2.10;;
72235;SDS011;60146;52.498;13.462;2023-07-30T06:40:33;2.28;;;2.00;;
72235;SDS011;60146;52.498;13.462;2023-07-30T06:42:59;3.05;;;2.25;;
72235;SDS011;60146;52.498;13.462;2023-07-30T06:45:24;2.53;;;1.90;;
72235;SDS011;60146;52.498;13.462;2023-07-30T06:47:49;2.67;;;2.10;;
72235;SDS011;60146;52.498;13.462;2023-07-30T06:50:15;4.43;;;1.98;;
72235;SDS011;60146;52.498;13.462;2023-07-30T06:52:40;2.58;;;1.70;;
72235;SDS011;60146;52.498;13.462;2023-07-30T06:55:05;2.70;;;1.92;;
72235;SDS011;60146;52.498;13.462;2023-07-30T06:57:31;2.92;;;1.70;;
72235;SDS011;60146;52.498;13.462;2023-07-30T06:59:56;1.92;;;1.63;;
72235;SDS011;60146;52.498;13.462;2023-07-30T07:02:23;2.67;;;1.88;;
72235;SDS011;60146;52.498;13.462;2023-07-30T07:04:48;3.17;;;1.90;;
72235;SDS011;60146;52.498;13.462;2023-07-30T07:07:14;2.78;;;1.90;;
72235;SDS011;60146;52.498;13.462;2023-07-30T07:09:39;3.97;;;1.85;;
72235;SDS011;60146;52.498;13.462;2023-07-30T07:12:05;3.13;;;2.08;;
72235;SDS011;60146;52.498;13.462;2023-07-30T07:14:31;2.97;;;1.70;;
72235;SDS011;60146;52.498;13.462;2023-07-30T07:16:57;2.70;;;1.90;;
72235;SDS011;60146;52.498;13.462;2023-07-30T07:19:22;3.50;;;1.95;;
72235;SDS011;60146;52.498;13.462;2023-07-30T07:21:48;3.28;;;2.08;;
72235;SDS011;60146;52.498;13.462;2023-07-30T07:24:13;2.42;;;2.17;;
72235;SDS011;60146;52.498;13.462;2023-07-30T07:26:39;2.60;;;1.98;;
72235;SDS011;60146;52.498;13.462;2023-07-30T07:29:04;4.32;;;2.40;;
72235;SDS011;60146;52.498;13.462;2023-07-30T07:31:29;2.80;;;2.03;;
72235;SDS011;60146;52.498;13.462;2023-07-30T07:33:55;2.72;;;2.30;;
72235;SDS011;60146;52.498;13.462;2023-07-30T07:36:20;2.78;;;2.20;;
72235;SDS011;60146;52.498;13.462;2023-07-30T07:38:46;4.70;;;2.17;;
72235;SDS011;60146;52.498;13.462;2023-07-30T07:41:17;3.67;;;2.30;;
72235;SDS011;60146;52.498;13.462;2023-07-30T07:43:43;5.53;;;2.30;;
72235;SDS011;60146;52.498;13.462;2023-07-30T07:46:09;3.88;;;2.40;;
72235;SDS011;60146;52.498;13.462;2023-07-30T07:48:41;3.08;;;2.20;;
72235;SDS011;60146;52.498;13.462;2023-07-30T07:51:11;2.90;;;2.28;;
72235;SDS011;60146;52.498;13.462;2023-07-30T07:53:37;3.60;;;2.30;;
72235;SDS011;60146;52.498;13.462;2023-07-30T07:56:02;2.53;;;2.10;;
72235;SDS011;60146;52.498;13.462;2023-07-30T07:58:28;2.78;;;2.00;;
72235;SDS011;60146;52.498;13.462;2023-07-30T08:00:54;3.22;;;2.13;;
72235;SDS011;60146;52.498;13.462;2023-07-30T08:03:20;2.50;;;2.10;;
72235;SDS011;60146;52.498;13.462;2023-07-30T08:05:46;2.53;;;2.10;;
72235;SDS011;60146;52.498;13.462;2023-07-30T08:08:12;2.25;;;1.95;;
72235;SDS011;60146;52.498;13.462;2023-07-30T08:10:38;3.88;;;2.20;;
72235;SDS011;60146;52.498;13.462;2023-07-30T08:13:04;3.22;;;1.85;;
72235;SDS011;60146;52.498;13.462;2023-07-30T08:15:30;3.90;;;1.98;;
72235;SDS011;60146;52.498;13.462;2023-07-30T08:17:55;3.45;;;1.80;;
72235;SDS011;60146;52.498;13.462;2023-07-30T08:20:20;5.07;;;1.90;;
72235;SDS011;60146;52.498;13.462;2023-07-30T08:22:46;1.90;;;1.80;;
72235;SDS011;60146;52.498;13.462;2023-07-30T08:25:11;2.35;;;1.75;;
72235;SDS011;60146;52.498;13.462;2023-07-30T08:27:37;2.92;;;1.90;;
72235;SDS011;60146;52.498;13.462;2023-07-30T08:30:02;2.28;;;1.92;;
72235;SDS011;60146;52.498;13.462;2023-07-30T08:32:28;2.95;;;2.08;;
72235;SDS011;60146;52.498;13.462;2023-07-30T08:34:53;7.63;;;2.00;;
72235;SDS011;60146;52.498;13.462;2023-07-30T08:37:18;3.47;;;1.90;;
72235;SDS011;60146;52.498;13.462;2023-07-30T08:39:44;3.33;;;2.10;;
72235;SDS011;60146;52.498;13.462;2023-07-30T08:42:09;3.80;;;2.10;;
72235;SDS011;60146;52.498;13.462;2023-07-30T08:44:34;3.33;;;1.85;;
72235;SDS011;60146;52.498;13.462;2023-07-30T08:47:00;3.25;;;1.80;;
72235;SDS011;60146;52.498;13.462;2023-07-30T08:49:25;3.05;;;1.70;;
72235;SDS011;60146;52.498;13.462;2023-07-30T08:51:53;3.20;;;2.00;;
72235;SDS011;60146;52.498;13.462;2023-07-30T08:54:19;1.83;;;1.67;;
72235;SDS011;60146;52.498;13.462;2023-07-30T08:56:47;2.45;;;1.80;;
72235;SDS011;60146;52.498;13.462;2023-07-30T08:59:14;2.95;;;1.85;;
72235;SDS011;60146;52.498;13.462;2023-07-30T09:01:40;1.85;;;1.60;;
72235;SDS011;60146;52.498;13.462;2023-07-30T09:04:08;2.65;;;1.80;;
72235;SDS011;60146;52.498;13.462;2023-07-30T09:06:34;3.25;;;1.48;;
72235;SDS011;60146;52.498;13.462;2023-07-30T09:08:59;2.45;;;1.50;;
72235;SDS011;60146;52.498;13.462;2023-07-30T09:11:25;2.92;;;1.70;;
72235;SDS011;60146;52.498;13.462;2023-07-30T09:13:52;3.35;;;1.60;;
72235;SDS011;60146;52.498;13.462;2023-07-30T09:16:18;3.78;;;1.70;;
72235;SDS011;60146;52.498;13.462;2023-07-30T09:18:44;3.22;;;1.60;;
72235;SDS011;60146;52.498;13.462;2023-07-30T09:21:11;2.33;;;1.50;;
72235;SDS011;60146;52.498;13.462;2023-07-30T09:23:44;2.53;;;1.70;;
72235;SDS011;60146;52.498;13.462;2023-07-30T09:26:12;2.53;;;1.60;;
72235;SDS011;60146;52.498;13.462;2023-07-30T09:28:39;3.08;;;1.80;;
72235;SDS011;60146;52.498;13.462;2023-07-30T09:31:05;3.72;;;1.60;;
72235;SDS011;60146;52.498;13.462;2023-07-30T09:33:33;1.92;;;1.33;;
72235;SDS011;60146;52.498;13.462;2023-07-30T09:36:02;2.33;;;1.40;;
72235;SDS011;60146;52.498;13.462;2023-07-30T09:38:29;3.88;;;1.45;;
72235;SDS011;60146;52.498;13.462;2023-07-30T09:41:01;2.53;;;1.30;;
72235;SDS011;60146;52.498;13.462;2023-07-30T09:43:34;2.83;;;1.50;;
72235;SDS011;60146;52.498;13.462;2023-07-30T09:46:03;2.72;;;1.45;;
72235;SDS011;60146;52.498;13.462;2023-07-30T09:48:34;3.85;;;1.35;;
72235;SDS011;60146;52.498;13.462;2023-07-30T09:51:00;3.67;;;1.52;;
72235;SDS011;60146;52.498;13.462;2023-07-30T09:53:31;4.22;;;1.73;;
72235;SDS011;60146;52.498;13.462;2023-07-30T09:56:00;2.08;;;1.48;;
72235;SDS011;60146;52.498;13.462;2023-07-30T09:58:29;1.90;;;1.30;;
72235;SDS011;60146;52.498;13.462;2023-07-30T10:00:56;3.58;;;1.50;;
72235;SDS011;60146;52.498;13.462;2023-07-30T10:03:24;2.25;;;1.30;;
72235;SDS011;60146;52.498;13.462;2023-07-30T10:05:51;4.22;;;1.70;;
72235;SDS011;60146;52.498;13.462;2023-07-30T10:08:21;1.85;;;1.30;;
72235;SDS011;60146;52.498;13.462;2023-07-30T10:10:49;2.15;;;1.20;;
72235;SDS011;60146;52.498;13.462;2023-07-30T10:13:17;2.28;;;1.40;;
72235;SDS011;60146;52.498;13.462;2023-07-30T10:15:43;1.98;;;1.40;;
72235;SDS011;60146;52.498;13.462;2023-07-30T10:18:10;2.50;;;1.35;;
72235;SDS011;60146;52.498;13.462;2023-07-30T10:20:36;6.03;;;1.50;;
72235;SDS011;60146;52.498;13.462;2023-07-30T10:23:01;2.63;;;1.50;;
72235;SDS011;60146;52.498;13.462;2023-07-30T10:25:30;3.03;;;1.67;;
72235;SDS011;60146;52.498;13.462;2023-07-30T10:28:27;5.60;;;1.65;;
72235;SDS011;60146;52.498;13.462;2023-07-30T10:30:59;2.42;;;1.40;;
72235;SDS011;60146;52.498;13.462;2023-07-30T10:36:30;2.83;;;1.40;;
72235;SDS011;60146;52.498;13.462;2023-07-30T10:39:14;1.48;;;1.20;;
72235;SDS011;60146;52.498;13.462;2023-07-30T10:41:49;2.95;;;1.40;;
72235;SDS011;60146;52.498;13.462;2023-07-30T10:44:32;3.30;;;1.52;;
72235;SDS011;60146;52.498;13.462;2023-07-30T10:47:01;3.17;;;1.33;;
72235;SDS011;60146;52.498;13.462;2023-07-30T10:49:28;2.33;;;1.40;;
72235;SDS011;60146;52.498;13.462;2023-07-30T10:51:55;2.05;;;1.20;;
72235;SDS011;60146;52.498;13.462;2023-07-30T10:54:25;3.38;;;1.42;;
72235;SDS011;60146;52.498;13.462;2023-07-30T10:56:50;2.13;;;1.33;;
72235;SDS011;60146;52.498;13.462;2023-07-30T10:59:18;1.83;;;1.30;;
72235;SDS011;60146;52.498;13.462;2023-07-30T11:01:44;5.15;;;1.52;;
72235;SDS011;60146;52.498;13.462;2023-07-30T11:04:11;2.53;;;1.60;;
72235;SDS011;60146;52.498;13.462;2023-07-30T11:06:39;3.88;;;1.50;;
72235;SDS011;60146;52.498;13.462;2023-07-30T11:09:17;3.13;;;1.60;;
72235;SDS011;60146;52.498;13.462;2023-07-30T11:11:44;3.60;;;1.38;;
72235;SDS011;60146;52.498;13.462;2023-07-30T11:14:14;2.00;;;1.20;;
72235;SDS011;60146;52.498;13.462;2023-07-30T11:19:14;2.42;;;1.30;;
72235;SDS011;60146;52.498;13.462;2023-07-30T11:21:44;2.40;;;1.40;;
72235;SDS011;60146;52.498;13.462;2023-07-30T11:24:10;4.10;;;1.58;;
72235;SDS011;60146;52.498;13.462;2023-07-30T11:26:39;2.83;;;1.25;;
72235;SDS011;60146;52.498;13.462;2023-07-30T11:29:29;4.35;;;1.25;;
72235;SDS011;60146;52.498;13.462;2023-07-30T11:31:58;2.78;;;1.45;;
72235;SDS011;60146;52.498;13.462;2023-07-30T11:34:26;3.47;;;1.00;;
72235;SDS011;60146;52.498;13.462;2023-07-30T11:37:14;4.13;;;1.27;;
72235;SDS011;60146;52.498;13.462;2023-07-30T11:39:41;1.80;;;1.13;;
72235;SDS011;60146;52.498;13.462;2023-07-30T11:42:06;3.28;;;1.40;;
72235;SDS011;60146;52.498;13.462;2023-07-30T11:44:39;3.20;;;1.45;;
72235;SDS011;60146;52.498;13.462;2023-07-30T11:47:06;1.73;;;1.10;;
72235;SDS011;60146;52.498;13.462;2023-07-30T11:49:36;5.35;;;1.20;;
72235;SDS011;60146;52.498;13.462;2023-07-30T11:52:16;2.92;;;1.30;;
72235;SDS011;60146;52.498;13.462;2023-07-30T11:57:40;3.55;;;1.23;;
72235;SDS011;60146;52.498;13.462;2023-07-30T12:00:08;3.38;;;1.30;;
72235;SDS011;60146;52.498;13.462;2023-07-30T12:02:37;2.50;;;1.20;;
72235;SDS011;60146;52.498;13.462;2023-07-30T12:05:04;2.92;;;1.13;;
72235;SDS011;60146;52.498;13.462;2023-07-30T12:14:29;6.57;;;1.38;;
72235;SDS011;60146;52.498;13.462;2023-07-30T12:17:14;4.07;;;1.50;;
72235;SDS011;60146;52.498;13.462;2023-07-30T12:19:43;2.83;;;1.35;;
72235;SDS011;60146;52.498;13.462;2023-07-30T12:22:09;3.45;;;1.27;;
72235;SDS011;60146;52.498;13.462;2023-07-30T12:24:36;2.83;;;1.40;;
72235;SDS011;60146;52.498;13.462;2023-07-30T12:27:01;2.55;;;1.38;;
72235;SDS011;60146;52.498;13.462;2023-07-30T12:29:27;2.70;;;1.20;;
72235;SDS011;60146;52.498;13.462;2023-07-30T12:31:52;3.13;;;1.50;;
72235;SDS011;60146;52.498;13.462;2023-07-30T12:34:18;3.25;;;1.60;;
72235;SDS011;60146;52.498;13.462;2023-07-30T12:36:44;2.33;;;1.20;;
72235;SDS011;60146;52.498;13.462;2023-07-30T12:39:09;3.97;;;1.40;;
72235;SDS011;60146;52.498;13.462;2023-07-30T12:41:35;3.15;;;1.60;;
72235;SDS011;60146;52.498;13.462;2023-07-30T12:44:00;2.83;;;1.38;;
72235;SDS011;60146;52.498;13.462;2023-07-30T12:46:28;3.00;;;1.47;;
72235;SDS011;60146;52.498;13.462;2023-07-30T12:48:55;3.30;;;1.42;;
72235;SDS011;60146;52.498;13.462;2023-07-30T12:51:21;2.65;;;1.60;;
72235;SDS011;60146;52.498;13.462;2023-07-30T12:53:47;2.78;;;1.58;;
72235;SDS011;60146;52.498;13.462;2023-07-30T12:56:12;5.03;;;1.60;;
72235;SDS011;60146;52.498;13.462;2023-07-30T12:58:39;4.05;;;1.50;;
72235;SDS011;60146;52.498;13.462;2023-07-30T13:01:07;3.20;;;1.42;;
72235;SDS011;60146;52.498;13.462;2023-07-30T13:06:00;3.20;;;1.48;;
72235;SDS011;60146;52.498;13.462;2023-07-30T13:08:26;4.47;;;1.70;;
72235;SDS011;60146;52.498;13.462;2023-07-30T13:11:01;2.72;;;1.42;;
72235;SDS011;60146;52.498;13.462;2023-07-30T13:13:33;2.80;;;1.58;;
72235;SDS011;60146;52.498;13.462;2023-07-30T13:15:59;3.95;;;1.63;;
72235;SDS011;60146;52.498;13.462;2023-07-30T13:18:26;4.28;;;1.70;;
72235;SDS011;60146;52.498;13.462;2023-07-30T13:20:52;3.85;;;1.60;;
72235;SDS011;60146;52.498;13.462;2023-07-30T13:23:17;3.42;;;1.50;;
72235;SDS011;60146;52.498;13.462;2023-07-30T13:25:42;5.13;;;1.60;;
72235;SDS011;60146;52.498;13.462;2023-07-30T13:28:08;4.13;;;1.65;;
72235;SDS011;60146;52.498;13.462;2023-07-30T13:30:36;2.88;;;1.50;;
72235;SDS011;60146;52.498;13.462;2023-07-30T13:33:02;3.60;;;1.60;;
72235;SDS011;60146;52.498;13.462;2023-07-30T13:35:27;3.00;;;1.63;;
72235;SDS011;60146;52.498;13.462;2023-07-30T13:37:53;3.60;;;1.50;;
72235;SDS011;60146;52.498;13.462;2023-07-30T13:40:18;3.83;;;1.50;;
72235;SDS011;60146;52.498;13.462;2023-07-30T13:42:44;2.35;;;1.60;;
72235;SDS011;60146;52.498;13.462;2023-07-30T13:45:14;2.25;;;1.75;;
72235;SDS011;60146;52.498;13.462;2023-07-30T13:47:40;2.15;;;1.50;;
72235;SDS011;60146;52.498;13.462;2023-07-30T13:50:17;3.15;;;1.60;;
72235;SDS011;60146;52.498;13.462;2023-07-30T13:52:43;3.45;;;1.30;;
72235;SDS011;60146;52.498;13.462;2023-07-30T13:55:08;2.78;;;1.52;;
72235;SDS011;60146;52.498;13.462;2023-07-30T13:57:34;4.13;;;1.50;;
72235;SDS011;60146;52.498;13.462;2023-07-30T13:59:59;2.65;;;1.48;;
72235;SDS011;60146;52.498;13.462;2023-07-30T14:02:24;2.60;;;1.48;;
72235;SDS011;60146;52.498;13.462;2023-07-30T14:04:50;3.40;;;1.38;;
72235;SDS011;60146;52.498;13.462;2023-07-30T14:07:15;2.35;;;1.50;;
72235;SDS011;60146;52.498;13.462;2023-07-30T14:09:40;1.92;;;1.05;;
72235;SDS011;60146;52.498;13.462;2023-07-30T14:12:08;2.03;;;1.08;;
72235;SDS011;60146;52.498;13.462;2023-07-30T14:14:33;2.25;;;1.05;;
72235;SDS011;60146;52.498;13.462;2023-07-30T14:16:59;2.10;;;1.08;;
72235;SDS011;60146;52.498;13.462;2023-07-30T14:19:25;3.08;;;1.30;;
72235;SDS011;60146;52.498;13.462;2023-07-30T14:21:51;1.38;;;1.00;;
72235;SDS011;60146;52.498;13.462;2023-07-30T14:24:18;3.58;;;1.13;;
72235;SDS011;60146;52.498;13.462;2023-07-30T14:27:04;3.25;;;1.08;;
72235;SDS011;60146;52.498;13.462;2023-07-30T14:29:29;2.70;;;1.00;;
72235;SDS011;60146;52.498;13.462;2023-07-30T14:31:55;2.45;;;1.08;;
72235;SDS011;60146;52.498;13.462;2023-07-30T14:34:35;2.95;;;1.13;;
72235;SDS011;60146;52.498;13.462;2023-07-30T14:37:01;1.50;;;1.02;;
72235;SDS011;60146;52.498;13.462;2023-07-30T14:39:26;3.30;;;1.10;;
72235;SDS011;60146;52.498;13.462;2023-07-30T14:41:52;3.78;;;1.40;;
72235;SDS011;60146;52.498;13.462;2023-07-30T14:44:17;4.57;;;1.50;;
72235;SDS011;60146;52.498;13.462;2023-07-30T14:46:43;2.35;;;1.05;;
72235;SDS011;60146;52.498;13.462;2023-07-30T14:49:11;2.05;;;1.15;;